sensor_id;sensor_type;location;lat;lon;timestamp;P1;durP1;ratioP1;P2;durP2;ratioP2
50689;SDS011;54375;48.298;11.238;2022-09-29T00:00:42;2.22;;;1.00;;
50689;SDS011;54375;48.298;11.238;2022-09-29T00:03:45;1.40;;;0.90;;
50689;SDS011;54375;48.298;11.238;2022-09-29T00:06:47;3.10;;;1.52;;
50689;SDS011;54375;48.298;11.238;2022-09-29T00:09:49;3.53;;;1.50;;
50689;SDS011;54375;48.298;11.238;2022-09-29T00:12:50;1.80;;;1.10;;
50689;SDS011;54375;48.298;11.238;2022-09-29T00:15:55;2.60;;;1.35;;
50689;SDS011;54375;48.298;11.238;2022-09-29T00:18:58;1.75;;;1.27;;
50689;SDS011;54375;48.298;11.238;2022-09-29T00:21:58;2.30;;;1.30;;
50689;SDS011;54375;48.298;11.238;2022-09-29T00:25:01;2.03;;;1.30;;
50689;SDS011;54375;48.298;11.238;2022-09-29T00:28:02;1.48;;;1.10;;
50689;SDS011;54375;48.298;11.238;2022-09-29T00:31:03;2.97;;;1.30;;
50689;SDS011;54375;48.298;11.238;2022-09-29T00:34:05;2.30;;;1.35;;
50689;SDS011;54375;48.298;11.238;2022-09-29T00:37:06;2.10;;;1.30;;
50689;SDS011;54375;48.298;11.238;2022-09-29T00:40:08;1.67;;;1.20;;
50689;SDS011;54375;48.298;11.238;2022-09-29T00:43:09;1.48;;;1.20;;
50689;SDS011;54375;48.298;11.238;2022-09-29T00:46:19;2.33;;;1.38;;
50689;SDS011;54375;48.298;11.238;2022-09-29T00:49:25;2.78;;;1.48;;
50689;SDS011;54375;48.298;11.238;2022-09-29T00:52:29;1.90;;;1.40;;
50689;SDS011;54375;48.298;11.238;2022-09-29T00:55:35;2.28;;;1.52;;
50689;SDS011;54375;48.298;11.238;2022-09-29T00:58:41;1.52;;;1.05;;
50689;SDS011;54375;48.298;11.238;2022-09-29T01:04:54;1.40;;;1.13;;
50689;SDS011;54375;48.298;11.238;2022-09-29T01:07:55;2.13;;;1.40;;
50689;SDS011;54375;48.298;11.238;2022-09-29T01:10:58;1.75;;;1.25;;
50689;SDS011;54375;48.298;11.238;2022-09-29T01:14:02;2.58;;;1.52;;
50689;SDS011;54375;48.298;11.238;2022-09-29T01:17:13;1.80;;;1.45;;
50689;SDS011;54375;48.298;11.238;2022-09-29T01:20:16;1.95;;;1.27;;
50689;SDS011;54375;48.298;11.238;2022-09-29T01:23:40;2.97;;;1.52;;
50689;SDS011;54375;48.298;11.238;2022-09-29T01:27:03;3.10;;;1.58;;
50689;SDS011;54375;48.298;11.238;2022-09-29T01:30:11;3.05;;;1.65;;
50689;SDS011;54375;48.298;11.238;2022-09-29T01:33:23;1.80;;;1.20;;
50689;SDS011;54375;48.298;11.238;2022-09-29T01:36:34;1.58;;;1.40;;
50689;SDS011;54375;48.298;11.238;2022-09-29T01:39:45;3.72;;;1.52;;
50689;SDS011;54375;48.298;11.238;2022-09-29T01:42:54;3.88;;;1.45;;
50689;SDS011;54375;48.298;11.238;2022-09-29T01:46:01;3.00;;;1.88;;
50689;SDS011;54375;48.298;11.238;2022-09-29T01:49:07;2.30;;;1.50;;
50689;SDS011;54375;48.298;11.238;2022-09-29T01:52:10;3.03;;;1.90;;
50689;SDS011;54375;48.298;11.238;2022-09-29T01:55:15;3.17;;;1.65;;
50689;SDS011;54375;48.298;11.238;2022-09-29T01:58:18;2.60;;;1.88;;
50689;SDS011;54375;48.298;11.238;2022-09-29T02:01:24;2.38;;;1.70;;
50689;SDS011;54375;48.298;11.238;2022-09-29T02:04:32;4.35;;;2.28;;
50689;SDS011;54375;48.298;11.238;2022-09-29T02:07:37;2.58;;;1.55;;
50689;SDS011;54375;48.298;11.238;2022-09-29T02:10:44;2.60;;;1.67;;
50689;SDS011;54375;48.298;11.238;2022-09-29T02:13:51;4.18;;;2.13;;
50689;SDS011;54375;48.298;11.238;2022-09-29T02:16:57;4.68;;;2.80;;
50689;SDS011;54375;48.298;11.238;2022-09-29T02:20:06;11.75;;;2.90;;
50689;SDS011;54375;48.298;11.238;2022-09-29T02:23:09;4.38;;;2.45;;
50689;SDS011;54375;48.298;11.238;2022-09-29T02:26:10;4.18;;;2.50;;
50689;SDS011;54375;48.298;11.238;2022-09-29T02:29:12;3.47;;;1.98;;
50689;SDS011;54375;48.298;11.238;2022-09-29T02:32:13;4.13;;;2.70;;
50689;SDS011;54375;48.298;11.238;2022-09-29T02:35:16;3.55;;;2.33;;
50689;SDS011;54375;48.298;11.238;2022-09-29T02:38:18;3.28;;;2.30;;
50689;SDS011;54375;48.298;11.238;2022-09-29T02:41:32;3.97;;;2.15;;
50689;SDS011;54375;48.298;11.238;2022-09-29T02:44:46;3.15;;;1.92;;
50689;SDS011;54375;48.298;11.238;2022-09-29T02:48:02;3.65;;;2.22;;
50689;SDS011;54375;48.298;11.238;2022-09-29T02:51:15;3.75;;;2.20;;
50689;SDS011;54375;48.298;11.238;2022-09-29T02:54:23;3.50;;;2.20;;
50689;SDS011;54375;48.298;11.238;2022-09-29T02:57:33;3.97;;;2.08;;
50689;SDS011;54375;48.298;11.238;2022-09-29T03:00:41;4.40;;;2.40;;
50689;SDS011;54375;48.298;11.238;2022-09-29T03:03:42;3.28;;;2.20;;
50689;SDS011;54375;48.298;11.238;2022-09-29T03:06:44;3.72;;;2.55;;
50689;SDS011;54375;48.298;11.238;2022-09-29T03:12:46;4.85;;;2.78;;
50689;SDS011;54375;48.298;11.238;2022-09-29T03:15:47;3.97;;;2.30;;
50689;SDS011;54375;48.298;11.238;2022-09-29T03:18:47;5.45;;;2.17;;
50689;SDS011;54375;48.298;11.238;2022-09-29T03:21:49;3.25;;;2.20;;
50689;SDS011;54375;48.298;11.238;2022-09-29T03:27:51;3.25;;;2.40;;
50689;SDS011;54375;48.298;11.238;2022-09-29T03:30:52;4.20;;;2.90;;
50689;SDS011;54375;48.298;11.238;2022-09-29T03:33:53;4.20;;;2.88;;
50689;SDS011;54375;48.298;11.238;2022-09-29T03:36:55;4.80;;;2.55;;
50689;SDS011;54375;48.298;11.238;2022-09-29T03:39:56;3.97;;;2.80;;
50689;SDS011;54375;48.298;11.238;2022-09-29T03:42:56;4.60;;;2.95;;
50689;SDS011;54375;48.298;11.238;2022-09-29T03:45:57;2.50;;;1.77;;
50689;SDS011;54375;48.298;11.238;2022-09-29T03:48:58;3.42;;;2.38;;
50689;SDS011;54375;48.298;11.238;2022-09-29T03:52:00;3.97;;;2.50;;
50689;SDS011;54375;48.298;11.238;2022-09-29T03:55:01;3.97;;;2.50;;
50689;SDS011;54375;48.298;11.238;2022-09-29T03:58:02;5.80;;;2.80;;
50689;SDS011;54375;48.298;11.238;2022-09-29T04:01:03;5.38;;;2.70;;
50689;SDS011;54375;48.298;11.238;2022-09-29T04:04:04;4.28;;;2.55;;
50689;SDS011;54375;48.298;11.238;2022-09-29T04:07:06;4.38;;;2.60;;
50689;SDS011;54375;48.298;11.238;2022-09-29T04:10:07;4.53;;;2.90;;
50689;SDS011;54375;48.298;11.238;2022-09-29T04:13:08;4.03;;;2.55;;
50689;SDS011;54375;48.298;11.238;2022-09-29T04:16:09;4.72;;;2.80;;
50689;SDS011;54375;48.298;11.238;2022-09-29T04:19:10;4.10;;;2.05;;
50689;SDS011;54375;48.298;11.238;2022-09-29T04:22:13;3.15;;;1.98;;
50689;SDS011;54375;48.298;11.238;2022-09-29T04:25:14;5.03;;;2.50;;
50689;SDS011;54375;48.298;11.238;2022-09-29T04:28:15;3.63;;;2.30;;
50689;SDS011;54375;48.298;11.238;2022-09-29T04:31:16;3.83;;;2.55;;
50689;SDS011;54375;48.298;11.238;2022-09-29T04:34:16;4.57;;;2.40;;
50689;SDS011;54375;48.298;11.238;2022-09-29T04:37:18;3.33;;;2.25;;
50689;SDS011;54375;48.298;11.238;2022-09-29T04:43:20;4.22;;;2.40;;
50689;SDS011;54375;48.298;11.238;2022-09-29T04:46:21;4.43;;;2.30;;
50689;SDS011;54375;48.298;11.238;2022-09-29T04:49:21;5.93;;;2.67;;
50689;SDS011;54375;48.298;11.238;2022-09-29T04:52:23;5.07;;;2.72;;
50689;SDS011;54375;48.298;11.238;2022-09-29T04:58:25;3.88;;;2.20;;
50689;SDS011;54375;48.298;11.238;2022-09-29T05:01:26;3.05;;;2.10;;
50689;SDS011;54375;48.298;11.238;2022-09-29T05:04:27;4.20;;;2.33;;
50689;SDS011;54375;48.298;11.238;2022-09-29T05:07:29;3.53;;;2.13;;
50689;SDS011;54375;48.298;11.238;2022-09-29T05:13:30;3.85;;;2.60;;
50689;SDS011;54375;48.298;11.238;2022-09-29T05:16:31;5.03;;;3.25;;
50689;SDS011;54375;48.298;11.238;2022-09-29T05:19:32;3.70;;;2.90;;
50689;SDS011;54375;48.298;11.238;2022-09-29T05:22:34;3.78;;;2.55;;
50689;SDS011;54375;48.298;11.238;2022-09-29T05:28:35;10.07;;;4.90;;
50689;SDS011;54375;48.298;11.238;2022-09-29T05:31:37;12.70;;;6.78;;
50689;SDS011;54375;48.298;11.238;2022-09-29T05:34:37;9.27;;;4.68;;
50689;SDS011;54375;48.298;11.238;2022-09-29T05:37:40;6.32;;;3.60;;
50689;SDS011;54375;48.298;11.238;2022-09-29T05:43:41;4.53;;;2.60;;
50689;SDS011;54375;48.298;11.238;2022-09-29T05:46:42;5.18;;;2.97;;
50689;SDS011;54375;48.298;11.238;2022-09-29T05:49:42;5.32;;;3.28;;
50689;SDS011;54375;48.298;11.238;2022-09-29T05:52:44;9.68;;;6.70;;
50689;SDS011;54375;48.298;11.238;2022-09-29T05:58:46;10.50;;;6.78;;
50689;SDS011;54375;48.298;11.238;2022-09-29T06:01:46;7.95;;;4.88;;
50689;SDS011;54375;48.298;11.238;2022-09-29T06:04:47;6.07;;;3.42;;
50689;SDS011;54375;48.298;11.238;2022-09-29T06:07:50;6.17;;;2.87;;
50689;SDS011;54375;48.298;11.238;2022-09-29T06:10:51;5.05;;;2.40;;
50689;SDS011;54375;48.298;11.238;2022-09-29T06:13:52;10.77;;;5.43;;
50689;SDS011;54375;48.298;11.238;2022-09-29T06:16:53;7.65;;;4.65;;
50689;SDS011;54375;48.298;11.238;2022-09-29T06:19:54;4.72;;;2.95;;
50689;SDS011;54375;48.298;11.238;2022-09-29T06:22:56;4.40;;;2.50;;
50689;SDS011;54375;48.298;11.238;2022-09-29T06:28:58;6.38;;;3.63;;
50689;SDS011;54375;48.298;11.238;2022-09-29T06:31:58;32.38;;;16.92;;
50689;SDS011;54375;48.298;11.238;2022-09-29T06:34:59;7.90;;;4.53;;
50689;SDS011;54375;48.298;11.238;2022-09-29T06:38:01;5.35;;;3.65;;
50689;SDS011;54375;48.298;11.238;2022-09-29T06:44:03;6.25;;;2.88;;
50689;SDS011;54375;48.298;11.238;2022-09-29T06:47:04;4.97;;;2.25;;
50689;SDS011;54375;48.298;11.238;2022-09-29T06:50:05;5.90;;;2.45;;
50689;SDS011;54375;48.298;11.238;2022-09-29T06:53:07;4.70;;;2.50;;
50689;SDS011;54375;48.298;11.238;2022-09-29T06:59:09;3.92;;;2.47;;
50689;SDS011;54375;48.298;11.238;2022-09-29T07:02:10;5.43;;;2.47;;
50689;SDS011;54375;48.298;11.238;2022-09-29T07:05:11;2.97;;;2.00;;
50689;SDS011;54375;48.298;11.238;2022-09-29T07:08:13;3.45;;;2.13;;
50689;SDS011;54375;48.298;11.238;2022-09-29T07:14:15;3.50;;;2.30;;
50689;SDS011;54375;48.298;11.238;2022-09-29T07:17:16;5.45;;;2.22;;
50689;SDS011;54375;48.298;11.238;2022-09-29T07:20:17;3.00;;;1.60;;
50689;SDS011;54375;48.298;11.238;2022-09-29T07:23:19;4.93;;;2.38;;
50689;SDS011;54375;48.298;11.238;2022-09-29T07:26:20;2.72;;;1.50;;
50689;SDS011;54375;48.298;11.238;2022-09-29T07:29:21;2.28;;;1.48;;
50689;SDS011;54375;48.298;11.238;2022-09-29T07:32:22;2.50;;;1.60;;
50689;SDS011;54375;48.298;11.238;2022-09-29T07:35:23;3.05;;;1.65;;
50689;SDS011;54375;48.298;11.238;2022-09-29T07:38:25;2.63;;;1.60;;
50689;SDS011;54375;48.298;11.238;2022-09-29T07:41:26;4.22;;;1.77;;
50689;SDS011;54375;48.298;11.238;2022-09-29T07:44:27;3.03;;;1.85;;
50689;SDS011;54375;48.298;11.238;2022-09-29T07:47:28;3.00;;;1.75;;
50689;SDS011;54375;48.298;11.238;2022-09-29T07:50:28;4.03;;;2.17;;
50689;SDS011;54375;48.298;11.238;2022-09-29T07:53:31;4.43;;;2.00;;
50689;SDS011;54375;48.298;11.238;2022-09-29T07:56:32;4.85;;;2.03;;
50689;SDS011;54375;48.298;11.238;2022-09-29T07:59:33;3.67;;;2.27;;
50689;SDS011;54375;48.298;11.238;2022-09-29T08:02:33;4.90;;;3.53;;
50689;SDS011;54375;48.298;11.238;2022-09-29T08:05:34;4.77;;;2.57;;
50689;SDS011;54375;48.298;11.238;2022-09-29T08:08:37;3.80;;;2.42;;
50689;SDS011;54375;48.298;11.238;2022-09-29T08:11:39;3.70;;;2.30;;
50689;SDS011;54375;48.298;11.238;2022-09-29T08:14:41;4.50;;;2.25;;
50689;SDS011;54375;48.298;11.238;2022-09-29T08:17:42;3.17;;;2.40;;
50689;SDS011;54375;48.298;11.238;2022-09-29T08:20:46;3.90;;;2.58;;
50689;SDS011;54375;48.298;11.238;2022-09-29T08:23:48;3.17;;;2.10;;
50689;SDS011;54375;48.298;11.238;2022-09-29T08:26:49;8.88;;;2.25;;
50689;SDS011;54375;48.298;11.238;2022-09-29T08:29:49;3.47;;;1.93;;
50689;SDS011;54375;48.298;11.238;2022-09-29T08:32:50;3.00;;;1.73;;
50689;SDS011;54375;48.298;11.238;2022-09-29T08:35:55;4.43;;;2.07;;
50689;SDS011;54375;48.298;11.238;2022-09-29T08:38:57;4.18;;;2.25;;
50689;SDS011;54375;48.298;11.238;2022-09-29T08:41:58;5.95;;;3.00;;
50689;SDS011;54375;48.298;11.238;2022-09-29T08:45:06;6.47;;;3.55;;
50689;SDS011;54375;48.298;11.238;2022-09-29T08:48:12;4.90;;;3.15;;
50689;SDS011;54375;48.298;11.238;2022-09-29T08:51:19;5.03;;;2.70;;
50689;SDS011;54375;48.298;11.238;2022-09-29T08:54:26;3.72;;;2.33;;
50689;SDS011;54375;48.298;11.238;2022-09-29T08:57:31;3.50;;;2.30;;
50689;SDS011;54375;48.298;11.238;2022-09-29T09:00:34;4.50;;;2.60;;
50689;SDS011;54375;48.298;11.238;2022-09-29T09:03:45;5.28;;;2.70;;
50689;SDS011;54375;48.298;11.238;2022-09-29T09:07:09;3.17;;;2.22;;
50689;SDS011;54375;48.298;11.238;2022-09-29T09:10:20;4.30;;;3.08;;
50689;SDS011;54375;48.298;11.238;2022-09-29T09:13:32;3.42;;;2.30;;
50689;SDS011;54375;48.298;11.238;2022-09-29T09:16:47;3.60;;;2.45;;
50689;SDS011;54375;48.298;11.238;2022-09-29T09:20:00;3.13;;;2.00;;
50689;SDS011;54375;48.298;11.238;2022-09-29T09:23:10;3.10;;;1.92;;
50689;SDS011;54375;48.298;11.238;2022-09-29T09:26:19;2.40;;;1.50;;
50689;SDS011;54375;48.298;11.238;2022-09-29T09:29:28;2.47;;;1.38;;
50689;SDS011;54375;48.298;11.238;2022-09-29T09:32:34;2.42;;;1.20;;
50689;SDS011;54375;48.298;11.238;2022-09-29T09:35:41;2.50;;;1.55;;
50689;SDS011;54375;48.298;11.238;2022-09-29T09:38:45;1.80;;;1.27;;
50689;SDS011;54375;48.298;11.238;2022-09-29T09:41:54;2.50;;;1.60;;
50689;SDS011;54375;48.298;11.238;2022-09-29T09:44:59;3.92;;;1.92;;
50689;SDS011;54375;48.298;11.238;2022-09-29T09:48:04;4.10;;;2.22;;
50689;SDS011;54375;48.298;11.238;2022-09-29T09:51:19;14.07;;;6.35;;
50689;SDS011;54375;48.298;11.238;2022-09-29T09:54:30;6.53;;;3.60;;
50689;SDS011;54375;48.298;11.238;2022-09-29T09:57:47;5.28;;;2.88;;
50689;SDS011;54375;48.298;11.238;2022-09-29T10:01:06;3.10;;;1.75;;
50689;SDS011;54375;48.298;11.238;2022-09-29T10:04:08;2.42;;;1.65;;
50689;SDS011;54375;48.298;11.238;2022-09-29T10:07:11;1.92;;;1.17;;
50689;SDS011;54375;48.298;11.238;2022-09-29T10:10:14;1.43;;;1.30;;
50689;SDS011;54375;48.298;11.238;2022-09-29T10:13:18;2.30;;;1.40;;
50689;SDS011;54375;48.298;11.238;2022-09-29T10:16:19;3.15;;;1.48;;
50689;SDS011;54375;48.298;11.238;2022-09-29T10:22:52;1.70;;;0.90;;
50689;SDS011;54375;48.298;11.238;2022-09-29T10:25:53;2.50;;;1.47;;
50689;SDS011;54375;48.298;11.238;2022-09-29T10:28:59;2.35;;;1.25;;
50689;SDS011;54375;48.298;11.238;2022-09-29T10:32:03;2.38;;;1.63;;
50689;SDS011;54375;48.298;11.238;2022-09-29T10:35:07;2.47;;;1.23;;
50689;SDS011;54375;48.298;11.238;2022-09-29T10:38:16;1.33;;;1.10;;
50689;SDS011;54375;48.298;11.238;2022-09-29T10:41:22;2.03;;;1.13;;
50689;SDS011;54375;48.298;11.238;2022-09-29T10:44:25;2.33;;;1.40;;
50689;SDS011;54375;48.298;11.238;2022-09-29T10:47:30;1.88;;;1.15;;
50689;SDS011;54375;48.298;11.238;2022-09-29T10:50:33;3.10;;;1.30;;
50689;SDS011;54375;48.298;11.238;2022-09-29T10:53:36;2.30;;;1.30;;
50689;SDS011;54375;48.298;11.238;2022-09-29T10:56:38;1.65;;;1.25;;
50689;SDS011;54375;48.298;11.238;2022-09-29T10:59:48;5.15;;;1.50;;
50689;SDS011;54375;48.298;11.238;2022-09-29T11:02:51;1.50;;;1.10;;
50689;SDS011;54375;48.298;11.238;2022-09-29T11:05:53;2.25;;;1.48;;
50689;SDS011;54375;48.298;11.238;2022-09-29T11:08:58;2.20;;;1.33;;
50689;SDS011;54375;48.298;11.238;2022-09-29T11:12:00;1.48;;;0.90;;
50689;SDS011;54375;48.298;11.238;2022-09-29T11:15:20;2.43;;;1.10;;
50689;SDS011;54375;48.298;11.238;2022-09-29T11:18:24;2.37;;;1.20;;
50689;SDS011;54375;48.298;11.238;2022-09-29T11:25:03;4.22;;;1.63;;
50689;SDS011;54375;48.298;11.238;2022-09-29T11:28:18;2.58;;;1.23;;
50689;SDS011;54375;48.298;11.238;2022-09-29T11:31:42;2.45;;;1.20;;
50689;SDS011;54375;48.298;11.238;2022-09-29T11:34:55;2.65;;;1.40;;
50689;SDS011;54375;48.298;11.238;2022-09-29T11:41:46;3.08;;;1.48;;
50689;SDS011;54375;48.298;11.238;2022-09-29T11:44:59;2.20;;;1.30;;
50689;SDS011;54375;48.298;11.238;2022-09-29T11:48:11;3.03;;;1.63;;
50689;SDS011;54375;48.298;11.238;2022-09-29T11:51:39;1.92;;;1.27;;
50689;SDS011;54375;48.298;11.238;2022-09-29T11:55:01;2.00;;;1.30;;
50689;SDS011;54375;48.298;11.238;2022-09-29T11:58:15;4.50;;;1.23;;
50689;SDS011;54375;48.298;11.238;2022-09-29T12:01:29;3.55;;;1.55;;
50689;SDS011;54375;48.298;11.238;2022-09-29T12:04:44;2.10;;;1.20;;
50689;SDS011;54375;48.298;11.238;2022-09-29T12:07:57;2.10;;;1.35;;
50689;SDS011;54375;48.298;11.238;2022-09-29T12:11:09;2.58;;;1.50;;
50689;SDS011;54375;48.298;11.238;2022-09-29T12:14:20;2.42;;;1.35;;
50689;SDS011;54375;48.298;11.238;2022-09-29T12:17:26;3.88;;;1.80;;
50689;SDS011;54375;48.298;11.238;2022-09-29T12:20:32;2.85;;;1.42;;
50689;SDS011;54375;48.298;11.238;2022-09-29T12:23:36;3.22;;;1.60;;
50689;SDS011;54375;48.298;11.238;2022-09-29T12:26:38;2.15;;;1.25;;
50689;SDS011;54375;48.298;11.238;2022-09-29T12:29:40;2.90;;;1.75;;
50689;SDS011;54375;48.298;11.238;2022-09-29T12:32:45;2.78;;;1.70;;
50689;SDS011;54375;48.298;11.238;2022-09-29T12:35:54;4.10;;;1.60;;
50689;SDS011;54375;48.298;11.238;2022-09-29T12:39:07;5.50;;;1.90;;
50689;SDS011;54375;48.298;11.238;2022-09-29T12:42:17;2.58;;;1.70;;
50689;SDS011;54375;48.298;11.238;2022-09-29T12:48:32;2.63;;;1.50;;
50689;SDS011;54375;48.298;11.238;2022-09-29T12:51:43;3.55;;;1.70;;
50689;SDS011;54375;48.298;11.238;2022-09-29T12:54:47;3.80;;;1.80;;
50689;SDS011;54375;48.298;11.238;2022-09-29T12:57:51;3.83;;;1.83;;
50689;SDS011;54375;48.298;11.238;2022-09-29T13:00:57;3.00;;;1.70;;
50689;SDS011;54375;48.298;11.238;2022-09-29T13:04:17;2.28;;;1.50;;
50689;SDS011;54375;48.298;11.238;2022-09-29T13:10:58;1.83;;;1.30;;
50689;SDS011;54375;48.298;11.238;2022-09-29T13:14:21;2.83;;;1.77;;
50689;SDS011;54375;48.298;11.238;2022-09-29T13:17:34;2.38;;;1.45;;
50689;SDS011;54375;48.298;11.238;2022-09-29T13:20:55;2.85;;;1.27;;
50689;SDS011;54375;48.298;11.238;2022-09-29T13:24:27;2.33;;;1.33;;
50689;SDS011;54375;48.298;11.238;2022-09-29T13:27:32;4.47;;;1.88;;
50689;SDS011;54375;48.298;11.238;2022-09-29T13:30:36;2.33;;;1.40;;
50689;SDS011;54375;48.298;11.238;2022-09-29T13:33:37;3.67;;;2.45;;
50689;SDS011;54375;48.298;11.238;2022-09-29T13:36:39;2.30;;;1.50;;
50689;SDS011;54375;48.298;11.238;2022-09-29T13:39:43;4.88;;;1.55;;
50689;SDS011;54375;48.298;11.238;2022-09-29T13:42:52;4.38;;;2.20;;
50689;SDS011;54375;48.298;11.238;2022-09-29T13:49:01;3.10;;;1.65;;
50689;SDS011;54375;48.298;11.238;2022-09-29T13:55:49;2.78;;;1.40;;
50689;SDS011;54375;48.298;11.238;2022-09-29T13:58:56;2.20;;;1.20;;
50689;SDS011;54375;48.298;11.238;2022-09-29T14:01:59;2.92;;;1.33;;
50689;SDS011;54375;48.298;11.238;2022-09-29T14:05:00;2.72;;;1.55;;
50689;SDS011;54375;48.298;11.238;2022-09-29T14:11:17;1.73;;;1.30;;
50689;SDS011;54375;48.298;11.238;2022-09-29T14:14:22;6.45;;;1.40;;
50689;SDS011;54375;48.298;11.238;2022-09-29T14:17:26;5.68;;;2.92;;
50689;SDS011;54375;48.298;11.238;2022-09-29T14:20:32;3.30;;;1.75;;
50689;SDS011;54375;48.298;11.238;2022-09-29T14:23:48;1.92;;;1.08;;
50689;SDS011;54375;48.298;11.238;2022-09-29T14:26:51;2.33;;;1.33;;
50689;SDS011;54375;48.298;11.238;2022-09-29T14:29:54;1.58;;;1.08;;
50689;SDS011;54375;48.298;11.238;2022-09-29T14:33:01;2.85;;;1.40;;
50689;SDS011;54375;48.298;11.238;2022-09-29T14:36:09;1.92;;;1.08;;
50689;SDS011;54375;48.298;11.238;2022-09-29T14:39:13;2.40;;;1.30;;
50689;SDS011;54375;48.298;11.238;2022-09-29T14:42:16;7.28;;;1.85;;
50689;SDS011;54375;48.298;11.238;2022-09-29T14:45:16;5.43;;;2.88;;
50689;SDS011;54375;48.298;11.238;2022-09-29T14:48:18;2.23;;;1.80;;
50689;SDS011;54375;48.298;11.238;2022-09-29T14:51:29;3.47;;;1.52;;
50689;SDS011;54375;48.298;11.238;2022-09-29T14:54:38;2.22;;;1.40;;
50689;SDS011;54375;48.298;11.238;2022-09-29T14:57:55;2.70;;;1.58;;
50689;SDS011;54375;48.298;11.238;2022-09-29T15:01:09;3.67;;;2.00;;
50689;SDS011;54375;48.298;11.238;2022-09-29T15:04:14;2.97;;;1.73;;
50689;SDS011;54375;48.298;11.238;2022-09-29T15:07:17;4.35;;;1.70;;
50689;SDS011;54375;48.298;11.238;2022-09-29T15:10:21;4.60;;;3.00;;
50689;SDS011;54375;48.298;11.238;2022-09-29T15:13:26;5.75;;;3.45;;
50689;SDS011;54375;48.298;11.238;2022-09-29T15:16:31;5.20;;;2.90;;
50689;SDS011;54375;48.298;11.238;2022-09-29T15:19:42;5.10;;;2.35;;
50689;SDS011;54375;48.298;11.238;2022-09-29T15:26:31;3.45;;;2.00;;
50689;SDS011;54375;48.298;11.238;2022-09-29T15:29:35;3.22;;;2.30;;
50689;SDS011;54375;48.298;11.238;2022-09-29T15:32:36;2.60;;;1.60;;
50689;SDS011;54375;48.298;11.238;2022-09-29T15:35:37;2.83;;;1.80;;
50689;SDS011;54375;48.298;11.238;2022-09-29T15:38:42;3.58;;;1.60;;
50689;SDS011;54375;48.298;11.238;2022-09-29T15:41:43;1.93;;;1.50;;
50689;SDS011;54375;48.298;11.238;2022-09-29T15:44:45;3.23;;;1.50;;
50689;SDS011;54375;48.298;11.238;2022-09-29T15:47:56;2.25;;;1.50;;
50689;SDS011;54375;48.298;11.238;2022-09-29T15:50:59;3.60;;;1.60;;
50689;SDS011;54375;48.298;11.238;2022-09-29T15:54:00;3.93;;;1.97;;
50689;SDS011;54375;48.298;11.238;2022-09-29T15:57:01;3.35;;;1.80;;
50689;SDS011;54375;48.298;11.238;2022-09-29T16:00:04;2.00;;;1.38;;
50689;SDS011;54375;48.298;11.238;2022-09-29T16:03:30;2.75;;;2.00;;
50689;SDS011;54375;48.298;11.238;2022-09-29T16:06:35;3.80;;;2.05;;
50689;SDS011;54375;48.298;11.238;2022-09-29T16:09:36;3.33;;;1.93;;
50689;SDS011;54375;48.298;11.238;2022-09-29T16:12:39;3.08;;;2.13;;
50689;SDS011;54375;48.298;11.238;2022-09-29T16:15:46;3.90;;;2.08;;
50689;SDS011;54375;48.298;11.238;2022-09-29T16:18:50;3.88;;;2.28;;
50689;SDS011;54375;48.298;11.238;2022-09-29T16:21:53;5.13;;;2.55;;
50689;SDS011;54375;48.298;11.238;2022-09-29T16:25:06;5.40;;;2.60;;
50689;SDS011;54375;48.298;11.238;2022-09-29T16:28:21;5.43;;;3.08;;
50689;SDS011;54375;48.298;11.238;2022-09-29T16:31:23;7.25;;;3.08;;
50689;SDS011;54375;48.298;11.238;2022-09-29T16:34:29;6.75;;;3.10;;
50689;SDS011;54375;48.298;11.238;2022-09-29T16:37:31;6.35;;;3.40;;
50689;SDS011;54375;48.298;11.238;2022-09-29T16:40:32;6.33;;;3.47;;
50689;SDS011;54375;48.298;11.238;2022-09-29T16:43:33;6.75;;;3.10;;
50689;SDS011;54375;48.298;11.238;2022-09-29T16:46:40;6.85;;;3.38;;
50689;SDS011;54375;48.298;11.238;2022-09-29T16:49:46;4.68;;;2.90;;
50689;SDS011;54375;48.298;11.238;2022-09-29T16:52:49;6.43;;;2.60;;
50689;SDS011;54375;48.298;11.238;2022-09-29T16:55:57;5.25;;;2.97;;
50689;SDS011;54375;48.298;11.238;2022-09-29T16:59:05;6.30;;;3.47;;
50689;SDS011;54375;48.298;11.238;2022-09-29T17:02:09;5.75;;;3.58;;
50689;SDS011;54375;48.298;11.238;2022-09-29T17:05:13;6.15;;;3.63;;
50689;SDS011;54375;48.298;11.238;2022-09-29T17:08:14;6.32;;;3.30;;
50689;SDS011;54375;48.298;11.238;2022-09-29T17:11:17;5.10;;;2.85;;
50689;SDS011;54375;48.298;11.238;2022-09-29T17:14:18;5.13;;;3.37;;
50689;SDS011;54375;48.298;11.238;2022-09-29T17:17:20;7.45;;;4.78;;
50689;SDS011;54375;48.298;11.238;2022-09-29T17:20:23;5.90;;;4.03;;
50689;SDS011;54375;48.298;11.238;2022-09-29T17:23:24;5.78;;;3.45;;
50689;SDS011;54375;48.298;11.238;2022-09-29T17:26:25;7.40;;;4.28;;
50689;SDS011;54375;48.298;11.238;2022-09-29T17:29:34;6.00;;;3.88;;
50689;SDS011;54375;48.298;11.238;2022-09-29T17:32:35;7.70;;;4.33;;
50689;SDS011;54375;48.298;11.238;2022-09-29T17:35:37;7.00;;;4.13;;
50689;SDS011;54375;48.298;11.238;2022-09-29T17:38:39;6.05;;;4.10;;
50689;SDS011;54375;48.298;11.238;2022-09-29T17:41:40;9.20;;;5.40;;
50689;SDS011;54375;48.298;11.238;2022-09-29T17:44:41;9.53;;;5.27;;
50689;SDS011;54375;48.298;11.238;2022-09-29T17:47:41;9.63;;;6.85;;
50689;SDS011;54375;48.298;11.238;2022-09-29T17:50:44;7.90;;;5.97;;
50689;SDS011;54375;48.298;11.238;2022-09-29T17:53:46;7.05;;;5.65;;
50689;SDS011;54375;48.298;11.238;2022-09-29T17:56:47;8.30;;;5.40;;
50689;SDS011;54375;48.298;11.238;2022-09-29T17:59:48;7.38;;;5.10;;
50689;SDS011;54375;48.298;11.238;2022-09-29T18:02:49;7.05;;;3.95;;
50689;SDS011;54375;48.298;11.238;2022-09-29T18:05:52;6.70;;;4.55;;
50689;SDS011;54375;48.298;11.238;2022-09-29T18:08:55;7.20;;;5.22;;
50689;SDS011;54375;48.298;11.238;2022-09-29T18:11:56;6.35;;;4.40;;
50689;SDS011;54375;48.298;11.238;2022-09-29T18:14:57;10.60;;;5.93;;
50689;SDS011;54375;48.298;11.238;2022-09-29T18:17:58;9.65;;;6.97;;
50689;SDS011;54375;48.298;11.238;2022-09-29T18:21:01;13.40;;;8.48;;
50689;SDS011;54375;48.298;11.238;2022-09-29T18:24:02;13.25;;;8.18;;
50689;SDS011;54375;48.298;11.238;2022-09-29T18:27:03;15.77;;;9.48;;
50689;SDS011;54375;48.298;11.238;2022-09-29T18:30:05;12.13;;;7.97;;
50689;SDS011;54375;48.298;11.238;2022-09-29T18:33:14;12.85;;;7.90;;
50689;SDS011;54375;48.298;11.238;2022-09-29T18:36:18;11.52;;;7.95;;
50689;SDS011;54375;48.298;11.238;2022-09-29T18:39:20;10.68;;;7.50;;
50689;SDS011;54375;48.298;11.238;2022-09-29T18:42:20;9.30;;;6.45;;
50689;SDS011;54375;48.298;11.238;2022-09-29T18:45:22;9.83;;;6.77;;
50689;SDS011;54375;48.298;11.238;2022-09-29T18:48:24;11.52;;;7.65;;
50689;SDS011;54375;48.298;11.238;2022-09-29T18:51:27;10.65;;;7.30;;
50689;SDS011;54375;48.298;11.238;2022-09-29T18:54:28;9.85;;;6.85;;
50689;SDS011;54375;48.298;11.238;2022-09-29T18:57:29;9.68;;;6.55;;
50689;SDS011;54375;48.298;11.238;2022-09-29T19:00:30;9.73;;;6.45;;
50689;SDS011;54375;48.298;11.238;2022-09-29T19:03:32;11.68;;;7.93;;
50689;SDS011;54375;48.298;11.238;2022-09-29T19:06:35;10.32;;;6.95;;
50689;SDS011;54375;48.298;11.238;2022-09-29T19:09:36;11.10;;;7.25;;
50689;SDS011;54375;48.298;11.238;2022-09-29T19:12:37;16.27;;;10.25;;
50689;SDS011;54375;48.298;11.238;2022-09-29T19:15:38;14.80;;;8.70;;
50689;SDS011;54375;48.298;11.238;2022-09-29T19:18:40;18.90;;;12.18;;
50689;SDS011;54375;48.298;11.238;2022-09-29T19:21:42;16.48;;;11.68;;
50689;SDS011;54375;48.298;11.238;2022-09-29T19:24:43;16.67;;;11.10;;